createdAt,value
2022-08-17T00:00:33.223Z,71.46
2022-08-17T00:01:12.464Z,67.84
2022-08-17T00:02:25.470Z,70.89
2022-08-17T00:03:14.104Z,70.40
2022-08-17T00:04:11.917Z,69.86
2022-08-17T00:05:12.307Z,68.83
2022-08-17T00:06:11.319Z,68.25
2022-08-17T00:07:11.270Z,68.32
2022-08-17T00:08:11.248Z,68.04
2022-08-17T00:09:11.235Z,67.86
2022-08-17T00:10:12.217Z,68.50
2022-08-17T00:11:11.221Z,71.82
2022-08-17T00:12:40.764Z,68.26
2022-08-17T00:13:12.161Z,69.78
2022-08-17T00:14:11.141Z,69.30
2022-08-17T00:15:11.123Z,67.31
2022-08-17T00:16:11.556Z,71.81
2022-08-17T00:17:11.083Z,69.98
2022-08-17T00:19:00.958Z,71.93
2022-08-17T00:19:12.060Z,69.38
2022-08-17T00:20:11.030Z,66.29
2022-08-17T00:21:11.039Z,68.71
2022-08-17T00:22:34.789Z,69.50
2022-08-17T00:23:12.006Z,70.70
2022-08-17T00:24:10.964Z,70.21
2022-08-17T00:25:10.936Z,70.44
2022-08-17T00:26:14.199Z,71.54
2022-08-17T00:27:10.901Z,67.30
2022-08-17T00:28:10.882Z,69.52
2022-08-17T00:29:10.864Z,71.45
2022-08-17T00:30:11.846Z,70.43
2022-08-17T00:31:10.854Z,70.58
2022-08-17T00:33:15.648Z,68.09
2022-08-17T00:33:16.559Z,68.94
2022-08-17T00:34:11.774Z,69.28
2022-08-17T00:35:10.759Z,64.89
2022-08-17T00:36:10.765Z,68.80
2022-08-17T00:37:10.716Z,69.36
2022-08-17T00:38:10.697Z,68.51
2022-08-17T00:39:10.680Z,70.72
2022-08-17T00:40:10.706Z,71.39
2022-08-17T00:41:10.669Z,68.38
2022-08-17T00:42:10.626Z,68.03
2022-08-17T00:43:10.604Z,69.74
2022-08-17T00:44:10.587Z,70.33
2022-08-17T00:45:10.568Z,64.25
2022-08-17T00:46:10.576Z,67.10
2022-08-17T00:47:10.527Z,71.02
2022-08-17T00:48:11.442Z,66.26
2022-08-17T00:49:11.509Z,67.01
2022-08-17T00:50:10.471Z,70.31
2022-08-17T00:51:10.485Z,68.88
2022-08-17T00:52:11.607Z,71.37
2022-08-17T00:53:10.413Z,68.35
2022-08-17T00:54:10.391Z,69.85
2022-08-17T00:55:10.373Z,71.51
2022-08-17T00:56:10.358Z,68.69
2022-08-17T00:57:10.364Z,70.16
2022-08-17T00:58:10.319Z,70.32
2022-08-17T00:59:10.297Z,68.62
2022-08-17T01:00:10.281Z,70.88
2022-08-17T01:01:10.324Z,72.40
2022-08-17T01:02:10.269Z,69.84
2022-08-17T01:03:10.233Z,70.94
2022-08-17T01:04:10.209Z,68.77
2022-08-17T01:05:10.189Z,70.53
2022-08-17T01:06:10.171Z,66.59
2022-08-17T01:07:10.179Z,71.93
2022-08-17T01:08:10.131Z,70.71
2022-08-17T01:09:10.113Z,71.46
2022-08-17T01:10:59.778Z,70.70
2022-08-17T01:11:11.072Z,66.58
2022-08-17T01:12:10.073Z,69.93
2022-08-17T01:13:11.041Z,65.25
2022-08-17T01:14:10.021Z,67.71
2022-08-17T01:15:10.021Z,70.14
2022-08-17T01:16:09.980Z,66.12
2022-08-17T01:17:09.985Z,68.05
2022-08-17T01:18:09.943Z,72.61
2022-08-17T01:19:09.922Z,72.20
2022-08-17T01:20:09.900Z,70.16
2022-08-17T01:21:09.887Z,68.51
2022-08-17T01:22:09.894Z,72.08
2022-08-17T01:23:09.847Z,70.40
2022-08-17T01:24:10.829Z,69.08
2022-08-17T01:25:09.811Z,68.96
2022-08-17T01:26:09.790Z,68.89
2022-08-17T01:27:10.250Z,68.65
2022-08-17T01:28:09.760Z,70.69
2022-08-17T01:29:09.736Z,72.46
2022-08-17T01:30:58.300Z,70.15
2022-08-17T01:31:10.700Z,70.04
2022-08-17T01:32:09.709Z,68.14
2022-08-17T01:33:09.662Z,71.72
2022-08-17T01:34:09.644Z,69.42
2022-08-17T01:35:09.626Z,69.82
2022-08-17T01:36:09.602Z,72.34
2022-08-17T01:37:09.612Z,69.80
2022-08-17T01:38:09.567Z,70.61
2022-08-17T01:39:09.549Z,69.25
2022-08-17T01:40:09.562Z,71.54
2022-08-17T01:41:09.510Z,70.13
2022-08-17T01:42:09.517Z,69.93
2022-08-17T01:43:09.462Z,70.68
2022-08-17T01:44:09.446Z,71.06
2022-08-17T01:45:09.424Z,69.16
2022-08-17T01:46:09.407Z,70.23
2022-08-17T01:47:09.415Z,71.45
2022-08-17T01:48:09.367Z,71.64
2022-08-17T01:49:09.348Z,69.30
2022-08-17T01:50:09.333Z,71.43
2022-08-17T01:51:09.313Z,71.43
2022-08-17T01:52:09.318Z,72.47
2022-08-17T01:53:09.271Z,67.76
2022-08-17T01:54:09.242Z,69.09
2022-08-17T01:55:10.233Z,67.34
2022-08-17T01:56:09.210Z,69.87
2022-08-17T01:57:09.228Z,69.96
2022-08-17T01:58:09.171Z,71.08
2022-08-17T01:59:09.159Z,72.51
2022-08-17T02:00:09.135Z,73.12
2022-08-17T02:01:09.161Z,71.81
2022-08-17T02:02:09.119Z,73.68
2022-08-17T02:03:09.074Z,70.15
2022-08-17T02:04:09.052Z,71.35
2022-08-17T02:05:09.038Z,71.42
2022-08-17T02:06:27.260Z,66.83
2022-08-17T02:07:10.025Z,70.77
2022-08-17T02:08:08.978Z,68.24
2022-08-17T02:09:12.220Z,73.39
2022-08-17T02:10:19.854Z,70.99
2022-08-17T02:11:11.685Z,71.14
2022-08-17T02:12:38.300Z,69.16
2022-08-17T02:13:09.883Z,71.52
2022-08-17T02:14:08.863Z,69.34
2022-08-17T02:15:08.849Z,69.74
2022-08-17T02:16:08.823Z,72.07
2022-08-17T02:17:08.830Z,71.69
2022-08-17T02:18:08.784Z,70.52
2022-08-17T02:19:08.777Z,70.45
2022-08-17T02:20:08.748Z,69.36
2022-08-17T02:21:08.728Z,70.56
2022-08-17T02:22:08.736Z,71.66
2022-08-17T02:23:08.699Z,70.42
2022-08-17T02:24:08.678Z,70.44
2022-08-17T02:25:08.651Z,71.88
2022-08-17T02:26:08.627Z,72.28
2022-08-17T02:27:09.643Z,69.13
2022-08-17T02:28:08.601Z,70.97
2022-08-17T02:29:08.571Z,73.46
2022-08-17T02:31:00.144Z,71.53
2022-08-17T02:31:09.551Z,69.52
2022-08-17T02:32:08.543Z,67.40
2022-08-17T02:33:09.314Z,69.78
2022-08-17T02:34:09.480Z,72.10
2022-08-17T02:35:08.463Z,72.41
2022-08-17T02:36:08.445Z,71.82
2022-08-17T02:37:08.449Z,72.41
2022-08-17T02:38:08.401Z,68.11
2022-08-17T02:39:08.379Z,71.63
2022-08-17T02:40:08.411Z,70.95
2022-08-17T02:41:08.346Z,71.87
2022-08-17T02:42:08.350Z,72.23
2022-08-17T02:43:08.304Z,70.40
2022-08-17T02:44:08.291Z,69.73
2022-08-17T02:45:08.274Z,72.50
2022-08-17T02:46:08.245Z,69.79
2022-08-17T02:47:08.257Z,71.88
2022-08-17T02:48:08.203Z,71.45
2022-08-17T02:49:08.185Z,70.89
2022-08-17T02:50:08.167Z,70.04
2022-08-17T02:51:08.142Z,69.13
2022-08-17T02:52:08.155Z,69.31
2022-08-17T02:53:08.337Z,71.80
2022-08-17T02:54:41.648Z,71.58
2022-08-17T02:55:09.069Z,71.90
2022-08-17T02:56:08.046Z,71.95
2022-08-17T02:57:08.061Z,70.54
2022-08-17T02:58:08.015Z,70.05
2022-08-17T02:59:07.988Z,67.70
2022-08-17T03:00:07.964Z,70.70
2022-08-17T03:01:08.949Z,72.14
2022-08-17T03:02:08.014Z,73.00
2022-08-17T03:03:07.909Z,70.51
2022-08-17T03:04:07.890Z,70.94
2022-08-17T03:05:07.873Z,72.35
2022-08-17T03:06:07.875Z,72.79
2022-08-17T03:07:07.862Z,69.23
2022-08-17T03:08:07.813Z,71.62
2022-08-17T03:09:08.791Z,72.75
2022-08-17T03:10:07.776Z,70.43
2022-08-17T03:11:07.757Z,70.43
2022-08-17T03:12:07.765Z,69.20
2022-08-17T03:13:07.721Z,71.36
2022-08-17T03:14:07.718Z,72.24
2022-08-17T03:15:07.680Z,71.62
2022-08-17T03:16:07.666Z,69.53
2022-08-17T03:17:07.669Z,71.51
2022-08-17T03:18:07.632Z,73.30
2022-08-17T03:19:08.604Z,72.96
2022-08-17T03:20:07.586Z,73.11
2022-08-17T03:21:07.567Z,71.83
2022-08-17T03:22:19.817Z,72.37
2022-08-17T03:23:08.525Z,71.73
2022-08-17T03:24:09.137Z,70.03
2022-08-17T03:25:10.683Z,71.16
2022-08-17T03:26:12.187Z,72.41
2022-08-17T03:27:08.486Z,72.59
2022-08-17T03:28:07.442Z,74.05
2022-08-17T03:29:07.423Z,70.60
2022-08-17T03:30:07.396Z,72.51
2022-08-17T03:31:07.383Z,71.65
2022-08-17T03:32:07.391Z,71.72
2022-08-17T03:33:07.343Z,71.43
2022-08-17T03:34:07.325Z,70.52
2022-08-17T03:35:07.305Z,72.16
2022-08-17T03:36:07.285Z,71.89
2022-08-17T03:37:07.296Z,72.20
2022-08-17T03:38:07.249Z,72.27
2022-08-17T03:39:07.231Z,72.03
2022-08-17T03:40:07.277Z,71.59
2022-08-17T03:41:07.192Z,69.73
2022-08-17T03:42:07.234Z,70.39
2022-08-17T03:43:08.158Z,73.38
2022-08-17T03:44:07.142Z,72.28
2022-08-17T03:45:07.120Z,71.80
2022-08-17T03:46:28.610Z,72.39
2022-08-17T03:47:07.118Z,71.03
2022-08-17T03:48:07.064Z,72.76
2022-08-17T03:49:09.904Z,72.28
2022-08-17T03:50:10.351Z,72.29
2022-08-17T03:51:12.723Z,73.00
2022-08-17T03:52:07.020Z,71.63
2022-08-17T03:53:06.971Z,72.26
2022-08-17T03:54:07.744Z,73.36
2022-08-17T03:55:06.934Z,72.77
2022-08-17T03:56:06.912Z,73.03
2022-08-17T03:57:06.927Z,72.76
2022-08-17T03:58:06.885Z,71.70
2022-08-17T03:59:06.858Z,72.29
2022-08-17T04:00:07.845Z,73.30
2022-08-17T04:01:06.909Z,72.37
2022-08-17T04:02:06.829Z,73.90
2022-08-17T04:03:06.849Z,73.49
2022-08-17T04:04:06.898Z,71.01
2022-08-17T04:05:06.747Z,72.21
2022-08-17T04:06:06.727Z,74.25
2022-08-17T04:07:06.734Z,71.83
2022-08-17T04:08:06.694Z,72.77
2022-08-17T04:09:06.670Z,73.26
2022-08-17T04:10:06.669Z,71.36
2022-08-17T04:11:06.638Z,72.70
2022-08-17T04:12:06.649Z,72.82
2022-08-17T04:13:06.625Z,74.84
2022-08-17T04:14:06.581Z,74.53
2022-08-17T04:15:06.563Z,73.69
2022-08-17T04:16:06.545Z,72.89
2022-08-17T04:17:06.551Z,71.45
2022-08-17T04:18:07.546Z,73.46
2022-08-17T04:19:07.485Z,71.86
2022-08-17T04:20:06.475Z,72.54
2022-08-17T04:21:06.450Z,72.92
2022-08-17T04:22:06.461Z,71.63
2022-08-17T04:23:06.416Z,72.53
2022-08-17T04:24:06.395Z,74.29
2022-08-17T04:25:06.384Z,72.39
2022-08-17T04:26:06.359Z,74.45
2022-08-17T04:27:06.364Z,74.46
2022-08-17T04:28:07.709Z,73.52
2022-08-17T04:29:07.303Z,72.86
2022-08-17T04:30:06.289Z,72.79
2022-08-17T04:31:06.266Z,72.48
2022-08-17T04:32:06.272Z,73.17
2022-08-17T04:33:07.226Z,73.83
2022-08-17T04:34:07.211Z,72.44
2022-08-17T04:35:06.192Z,73.69
2022-08-17T04:36:06.175Z,70.98
2022-08-17T04:37:06.186Z,74.41
2022-08-17T04:38:06.140Z,73.66
2022-08-17T04:39:06.119Z,72.41
2022-08-17T04:40:06.147Z,73.61
2022-08-17T04:41:06.085Z,72.78
2022-08-17T04:42:06.091Z,73.42
2022-08-17T04:43:06.045Z,74.08
2022-08-17T04:44:06.026Z,72.55
2022-08-17T04:45:06.012Z,72.84
2022-08-17T04:46:05.996Z,72.32
2022-08-17T04:47:05.998Z,71.83
2022-08-17T04:48:05.954Z,71.14
2022-08-17T04:49:05.936Z,72.45
2022-08-17T04:50:05.917Z,72.52
2022-08-17T04:51:05.903Z,72.52
2022-08-17T04:52:05.965Z,73.33
2022-08-17T04:53:05.859Z,73.72
2022-08-17T04:54:05.841Z,71.91
2022-08-17T04:55:05.821Z,71.97
2022-08-17T04:56:05.802Z,71.41
2022-08-17T04:57:05.809Z,73.09
2022-08-17T04:58:05.760Z,72.17
2022-08-17T04:59:05.748Z,73.18
2022-08-17T05:00:05.725Z,71.13
2022-08-17T05:01:05.761Z,71.03
2022-08-17T05:02:05.715Z,72.47
2022-08-17T05:03:05.671Z,73.02
2022-08-17T05:04:21.078Z,71.62
2022-08-17T05:05:06.638Z,70.36
2022-08-17T05:06:05.616Z,71.33
2022-08-17T05:07:05.632Z,70.04
2022-08-17T05:08:05.577Z,70.56
2022-08-17T05:09:05.562Z,67.62
2022-08-17T05:10:05.542Z,71.11
2022-08-17T05:11:05.522Z,70.25
2022-08-17T05:12:05.537Z,70.73
2022-08-17T05:13:05.487Z,69.64
2022-08-17T05:14:05.468Z,69.22
2022-08-17T05:15:05.449Z,71.04
2022-08-17T05:16:05.431Z,69.76
2022-08-17T05:17:09.363Z,68.31
2022-08-17T05:18:06.422Z,69.73
2022-08-17T05:19:05.376Z,69.10
2022-08-17T05:20:05.362Z,69.44
2022-08-17T05:21:05.344Z,67.98
2022-08-17T05:22:05.326Z,68.40
2022-08-17T05:23:05.345Z,68.09
2022-08-17T05:24:06.026Z,69.46
2022-08-17T05:25:06.270Z,68.16
2022-08-17T05:26:07.039Z,70.18
2022-08-17T05:27:06.823Z,69.26
2022-08-17T05:28:05.217Z,68.18
2022-08-17T05:29:05.227Z,69.90
2022-08-17T05:30:05.185Z,68.40
2022-08-17T05:31:05.165Z,67.78
2022-08-17T05:32:05.146Z,69.24
2022-08-17T05:33:06.151Z,67.36
2022-08-17T05:34:05.104Z,70.29
2022-08-17T05:35:05.098Z,68.64
2022-08-17T05:36:05.068Z,66.04
2022-08-17T05:37:05.051Z,67.29
2022-08-17T05:38:05.064Z,68.84
2022-08-17T05:39:05.015Z,69.70
2022-08-17T05:40:05.049Z,68.05
2022-08-17T05:41:04.977Z,70.24
2022-08-17T05:42:04.956Z,70.47
2022-08-17T05:43:04.966Z,69.63
2022-08-17T05:44:05.586Z,70.78
2022-08-17T05:45:04.906Z,69.76
2022-08-17T05:46:04.884Z,69.80
2022-08-17T05:47:04.870Z,70.52
2022-08-17T05:48:05.874Z,71.75
2022-08-17T05:49:04.833Z,70.79
2022-08-17T05:50:09.779Z,71.73
2022-08-17T05:51:05.798Z,70.18
2022-08-17T05:52:04.781Z,71.32
2022-08-17T05:53:04.791Z,71.50
2022-08-17T05:54:04.739Z,70.53
2022-08-17T05:55:04.722Z,69.31
2022-08-17T05:56:04.710Z,73.01
2022-08-17T05:57:04.684Z,72.35
2022-08-17T05:58:04.692Z,71.66
2022-08-17T05:59:05.393Z,69.57
2022-08-17T06:00:04.629Z,70.69
2022-08-17T06:01:04.672Z,71.02
2022-08-17T06:02:05.434Z,67.09
2022-08-17T06:03:04.605Z,70.13
2022-08-17T06:04:04.562Z,69.98
2022-08-17T06:05:04.541Z,69.96
2022-08-17T06:06:04.527Z,69.43
2022-08-17T06:07:04.508Z,70.27
2022-08-17T06:08:04.519Z,68.32
2022-08-17T06:09:04.480Z,68.14
2022-08-17T06:10:05.386Z,65.75
2022-08-17T06:11:05.423Z,70.09
2022-08-17T06:12:04.421Z,69.89
2022-08-17T06:13:04.430Z,70.07
2022-08-17T06:14:04.459Z,68.11
2022-08-17T06:15:04.368Z,69.45
2022-08-17T06:16:04.354Z,69.29
2022-08-17T06:17:04.336Z,67.27
2022-08-17T06:18:04.345Z,69.15
2022-08-17T06:19:04.303Z,67.40
2022-08-17T06:20:04.287Z,68.87
2022-08-17T06:21:04.273Z,68.02
2022-08-17T06:22:04.254Z,69.87
2022-08-17T06:23:04.267Z,67.82
2022-08-17T06:24:04.221Z,67.89
2022-08-17T06:25:04.202Z,70.07
2022-08-17T06:26:05.189Z,70.29
2022-08-17T06:27:04.167Z,68.80
2022-08-17T06:28:04.173Z,70.76
2022-08-17T06:29:04.133Z,69.42
2022-08-17T06:30:04.120Z,69.01
2022-08-17T06:31:04.100Z,68.07
2022-08-17T06:32:04.084Z,68.32
2022-08-17T06:33:04.100Z,68.42
2022-08-17T06:34:04.037Z,68.42
2022-08-17T06:35:05.026Z,68.03
2022-08-17T06:36:07.974Z,68.69
2022-08-17T06:37:04.994Z,70.06
2022-08-17T06:38:04.031Z,67.06
2022-08-17T06:39:03.962Z,68.25
2022-08-17T06:40:04.037Z,68.65
2022-08-17T06:41:03.924Z,68.07
2022-08-17T06:42:03.908Z,67.66
2022-08-17T06:43:07.261Z,70.65
2022-08-17T06:44:04.872Z,68.94
2022-08-17T06:45:03.854Z,67.02
2022-08-17T06:46:04.098Z,67.62
2022-08-17T06:47:03.821Z,67.61
2022-08-17T06:48:03.829Z,69.01
2022-08-17T06:49:03.796Z,67.06
2022-08-17T06:50:03.769Z,68.72
2022-08-17T06:51:03.748Z,67.65
2022-08-17T06:52:03.735Z,66.93
2022-08-17T06:53:03.748Z,66.72
2022-08-17T06:54:03.703Z,66.99
2022-08-17T06:55:03.688Z,67.36
2022-08-17T06:56:03.673Z,66.77
2022-08-17T06:57:03.642Z,67.41
2022-08-17T06:58:05.867Z,67.25
2022-08-17T06:59:04.623Z,65.45
2022-08-17T07:00:03.677Z,65.60
2022-08-17T07:01:03.625Z,66.13
2022-08-17T07:02:03.583Z,65.02
2022-08-17T07:03:03.867Z,65.65
2022-08-17T07:04:05.064Z,64.40
2022-08-17T07:05:04.543Z,65.39
2022-08-17T07:06:03.519Z,66.46
2022-08-17T07:07:03.497Z,64.09
2022-08-17T07:08:03.543Z,66.91
2022-08-17T07:09:03.474Z,66.31
2022-08-17T07:10:03.451Z,66.26
2022-08-17T07:11:04.448Z,66.71
2022-08-17T07:12:03.427Z,65.94
2022-08-17T07:13:03.447Z,66.47
2022-08-17T07:14:03.396Z,67.13
2022-08-17T07:15:03.380Z,66.86
2022-08-17T07:16:03.364Z,68.18
2022-08-17T07:17:03.353Z,66.82
2022-08-17T07:18:03.518Z,67.33
2022-08-17T07:19:03.321Z,67.74
2022-08-17T07:20:03.298Z,69.51
2022-08-17T07:21:03.283Z,69.05
2022-08-17T07:22:03.269Z,68.46
2022-08-17T07:23:03.276Z,66.63
2022-08-17T07:24:03.238Z,70.24
2022-08-17T07:25:03.218Z,68.80
2022-08-17T07:26:04.199Z,66.82
2022-08-17T07:27:03.211Z,69.45
2022-08-17T07:28:06.086Z,68.44
2022-08-17T07:29:03.155Z,68.13
2022-08-17T07:30:08.035Z,68.58
2022-08-17T07:31:05.114Z,69.57
2022-08-17T07:32:03.101Z,68.21
2022-08-17T07:33:03.121Z,67.51
2022-08-17T07:34:03.075Z,67.10
2022-08-17T07:35:03.058Z,66.40
2022-08-17T07:36:03.062Z,67.63
2022-08-17T07:37:03.950Z,66.70
2022-08-17T07:38:03.033Z,66.94
2022-08-17T07:39:02.989Z,65.87
2022-08-17T07:40:16.252Z,66.34
2022-08-17T07:41:03.953Z,66.27
2022-08-17T07:42:02.953Z,66.10
2022-08-17T07:43:03.507Z,67.26
2022-08-17T07:44:02.908Z,67.84
2022-08-17T07:45:02.895Z,68.92
2022-08-17T07:46:02.880Z,67.58
2022-08-17T07:47:02.866Z,67.32
2022-08-17T07:48:02.879Z,65.49
2022-08-17T07:49:02.833Z,66.88
2022-08-17T07:50:02.817Z,68.10
2022-08-17T07:51:02.799Z,68.03
2022-08-17T07:52:48.436Z,67.32
2022-08-17T07:53:03.791Z,68.78
2022-08-17T07:54:14.014Z,67.90
2022-08-17T07:55:04.740Z,65.03
2022-08-17T07:56:02.724Z,68.58
2022-08-17T07:57:02.708Z,68.96
2022-08-17T07:58:02.715Z,69.02
2022-08-17T07:59:02.677Z,66.94
2022-08-17T08:00:03.060Z,66.48
2022-08-17T08:01:02.649Z,65.52
2022-08-17T08:02:02.666Z,66.97
2022-08-17T08:03:02.640Z,65.11
2022-08-17T08:04:02.593Z,64.15
2022-08-17T08:05:02.715Z,67.60
2022-08-17T08:06:02.563Z,65.89
2022-08-17T08:07:02.551Z,62.15
2022-08-17T08:08:02.561Z,66.20
2022-08-17T08:09:03.485Z,66.78
2022-08-17T08:10:02.513Z,66.48
2022-08-17T08:11:02.492Z,65.21
2022-08-17T08:12:02.475Z,66.35
2022-08-17T08:13:02.489Z,64.98
2022-08-17T08:14:02.443Z,64.57
2022-08-17T08:15:02.429Z,65.55
2022-08-17T08:16:02.414Z,64.84
2022-08-17T08:17:02.398Z,64.63
2022-08-17T08:18:02.407Z,66.74
2022-08-17T08:19:02.366Z,62.50
2022-08-17T08:20:37.623Z,65.96
2022-08-17T08:21:03.338Z,65.53
2022-08-17T08:22:02.327Z,68.17
2022-08-17T08:23:02.332Z,68.25
2022-08-17T08:24:02.292Z,67.24
2022-08-17T08:25:02.942Z,68.08
2022-08-17T08:26:02.262Z,66.86
2022-08-17T08:27:02.243Z,66.91
2022-08-17T08:28:02.264Z,67.21
2022-08-17T08:29:02.216Z,68.01
2022-08-17T08:30:02.196Z,66.48
2022-08-17T08:31:02.181Z,67.56
2022-08-17T08:32:02.166Z,68.37
2022-08-17T08:33:02.172Z,67.44
2022-08-17T08:34:02.131Z,69.31
2022-08-17T08:35:03.526Z,67.40
2022-08-17T08:36:03.097Z,68.61
2022-08-17T08:37:16.542Z,68.66
2022-08-17T08:38:03.088Z,68.75
2022-08-17T08:39:02.050Z,69.06
2022-08-17T08:40:02.125Z,67.94
2022-08-17T08:41:02.016Z,69.61
2022-08-17T08:42:01.999Z,70.83
2022-08-17T08:43:02.008Z,68.38
2022-08-17T08:44:01.965Z,70.72
2022-08-17T08:45:04.612Z,69.13
2022-08-17T08:46:01.937Z,70.35
2022-08-17T08:47:01.914Z,70.48
2022-08-17T08:48:05.564Z,68.45
2022-08-17T08:49:10.110Z,69.77
2022-08-17T08:50:05.318Z,70.51
2022-08-17T08:51:03.852Z,70.05
2022-08-17T08:52:01.836Z,69.25
2022-08-17T08:53:01.991Z,67.90
2022-08-17T08:54:01.800Z,67.46
2022-08-17T08:55:01.784Z,68.47
2022-08-17T08:56:01.764Z,71.70
2022-08-17T08:57:23.131Z,67.73
2022-08-17T08:58:03.763Z,69.06
2022-08-17T08:59:01.716Z,69.14
2022-08-17T09:00:01.700Z,68.47
2022-08-17T09:01:01.724Z,67.36
2022-08-17T09:02:01.668Z,68.36
2022-08-17T09:03:01.678Z,69.65
2022-08-17T09:04:19.570Z,66.94
2022-08-17T09:05:14.403Z,68.77
2022-08-17T09:06:03.600Z,69.26
2022-08-17T09:07:01.581Z,66.71
2022-08-17T09:08:01.593Z,68.56
2022-08-17T09:09:01.547Z,69.74
2022-08-17T09:10:01.533Z,68.21
2022-08-17T09:11:01.512Z,69.64
2022-08-17T09:12:03.643Z,68.80
2022-08-17T09:13:09.381Z,67.69
2022-08-17T09:14:03.460Z,67.18
2022-08-17T09:15:01.485Z,69.66
2022-08-17T09:16:01.428Z,70.14
2022-08-17T09:17:01.513Z,68.69
2022-08-17T09:18:36.407Z,69.65
2022-08-17T09:19:04.694Z,70.47
2022-08-17T09:20:02.363Z,68.16
2022-08-17T09:21:01.340Z,69.18
2022-08-17T09:22:01.323Z,67.31
2022-08-17T09:23:01.325Z,69.56
2022-08-17T09:24:02.290Z,69.86
2022-08-17T09:25:01.274Z,68.85
2022-08-17T09:26:01.863Z,69.38
2022-08-17T09:27:01.237Z,69.76
2022-08-17T09:28:01.250Z,69.30
2022-08-17T09:29:01.204Z,70.29
2022-08-17T09:30:01.191Z,70.45
2022-08-17T09:31:01.169Z,68.14
2022-08-17T09:32:01.165Z,68.26
2022-08-17T09:33:01.162Z,70.78
2022-08-17T09:34:01.117Z,68.52
2022-08-17T09:35:01.138Z,71.15
2022-08-17T09:36:01.096Z,71.34
2022-08-17T09:37:01.859Z,70.71
2022-08-17T09:38:01.077Z,70.26
2022-08-17T09:39:02.031Z,68.91
2022-08-17T09:40:01.067Z,70.73
2022-08-17T09:41:00.999Z,71.26
2022-08-17T09:42:00.982Z,70.96
2022-08-17T09:43:00.993Z,70.65
2022-08-17T09:44:00.946Z,70.94
2022-08-17T09:45:00.930Z,70.39
2022-08-17T09:46:00.914Z,69.98
2022-08-17T09:47:00.935Z,71.04
2022-08-17T09:48:00.904Z,71.09
2022-08-17T09:49:00.864Z,70.12
2022-08-17T09:50:00.846Z,70.68
2022-08-17T09:51:06.011Z,70.33
2022-08-17T09:52:02.466Z,69.49
2022-08-17T09:53:00.817Z,67.69
2022-08-17T09:54:21.131Z,71.19
2022-08-17T09:55:02.760Z,70.27
2022-08-17T09:56:00.749Z,71.26
2022-08-17T09:57:25.702Z,70.20
2022-08-17T09:58:02.734Z,67.45
2022-08-17T09:59:01.857Z,68.97
2022-08-17T10:00:00.670Z,71.11
2022-08-17T10:01:00.674Z,70.47
2022-08-17T10:02:00.637Z,69.86
2022-08-17T10:03:01.132Z,67.63
2022-08-17T10:04:00.816Z,70.03
2022-08-17T10:05:00.586Z,70.39
2022-08-17T10:06:00.569Z,68.28
2022-08-17T10:07:00.546Z,70.91
2022-08-17T10:08:00.970Z,69.42
2022-08-17T10:09:00.508Z,70.24
2022-08-17T10:10:00.492Z,69.87
2022-08-17T10:11:00.475Z,69.05
2022-08-17T10:12:00.459Z,68.51
2022-08-17T10:13:00.471Z,70.59
2022-08-17T10:14:00.422Z,70.07
2022-08-17T10:15:07.952Z,68.23
2022-08-17T10:16:01.384Z,67.90
2022-08-17T10:17:00.367Z,69.66
2022-08-17T10:18:00.349Z,69.54
2022-08-17T10:19:00.962Z,70.10
2022-08-17T10:20:00.313Z,70.53
2022-08-17T10:21:00.297Z,69.19
2022-08-17T10:22:01.424Z,69.59
2022-08-17T10:23:01.257Z,68.68
2022-08-17T10:24:00.269Z,68.70
2022-08-17T10:25:21.010Z,68.42
2022-08-17T10:26:01.212Z,69.13
2022-08-17T10:27:00.194Z,68.08
2022-08-17T10:28:00.172Z,66.96
2022-08-17T10:29:00.181Z,67.95
2022-08-17T10:30:00.136Z,70.10
2022-08-17T10:31:23.405Z,70.10
2022-08-17T10:32:02.100Z,68.64
2022-08-17T10:33:00.079Z,68.61
2022-08-17T10:34:00.106Z,69.73
2022-08-17T10:35:00.043Z,68.64
2022-08-17T10:36:00.025Z,66.27
2022-08-17T10:37:00.005Z,66.67
2022-08-17T10:37:59.989Z,68.72
2022-08-17T10:39:00.007Z,66.38
2022-08-17T10:39:59.989Z,66.93
2022-08-17T10:40:59.936Z,68.48
2022-08-17T10:41:59.918Z,67.94
2022-08-17T10:42:59.899Z,70.16
2022-08-17T10:44:38.236Z,68.78
2022-08-17T10:45:00.866Z,67.86
2022-08-17T10:46:10.600Z,67.54
2022-08-17T10:47:00.829Z,65.14
2022-08-17T10:48:04.796Z,68.06
2022-08-17T10:49:01.845Z,67.88
2022-08-17T10:49:59.771Z,67.14
2022-08-17T10:50:59.759Z,65.96
2022-08-17T10:51:59.739Z,66.78
2022-08-17T10:52:59.717Z,65.45
2022-08-17T10:53:59.729Z,66.27
2022-08-17T10:54:59.684Z,66.07
2022-08-17T10:55:59.662Z,66.00
2022-08-17T10:56:59.648Z,66.08
2022-08-17T10:57:59.627Z,67.58
2022-08-17T10:58:59.636Z,67.60
2022-08-17T10:59:59.591Z,67.32
2022-08-17T11:00:59.669Z,65.09
2022-08-17T11:01:59.552Z,67.98
2022-08-17T11:02:59.535Z,68.69
2022-08-17T11:03:59.592Z,68.36
2022-08-17T11:04:59.500Z,67.46
2022-08-17T11:05:59.480Z,67.93
2022-08-17T11:06:59.466Z,69.08
2022-08-17T11:07:59.443Z,67.12
2022-08-17T11:08:59.457Z,67.71
2022-08-17T11:09:59.412Z,68.90
2022-08-17T11:10:59.396Z,67.91
2022-08-17T11:11:59.378Z,68.79
2022-08-17T11:12:59.368Z,67.21
2022-08-17T11:13:59.363Z,67.55
2022-08-17T11:14:59.959Z,68.03
2022-08-17T11:16:02.362Z,67.80
2022-08-17T11:17:01.286Z,67.14
2022-08-17T11:17:59.265Z,66.81
2022-08-17T11:18:59.273Z,68.75
2022-08-17T11:19:59.230Z,66.63
2022-08-17T11:20:59.210Z,66.68
2022-08-17T11:21:59.195Z,66.99
2022-08-17T11:22:59.174Z,65.68
2022-08-17T11:23:59.190Z,67.14
2022-08-17T11:24:59.142Z,68.62
2022-08-17T11:25:59.107Z,69.17
2022-08-17T11:26:59.111Z,66.24
2022-08-17T11:27:59.086Z,68.00
2022-08-17T11:28:59.092Z,65.78
2022-08-17T11:30:02.099Z,66.36
2022-08-17T11:31:00.198Z,68.37
2022-08-17T11:31:59.009Z,67.49
2022-08-17T11:32:58.988Z,66.60
2022-08-17T11:33:58.992Z,66.64
2022-08-17T11:34:58.950Z,66.60
2022-08-17T11:35:58.931Z,66.64
2022-08-17T11:36:59.839Z,68.13
2022-08-17T11:37:58.896Z,65.54
2022-08-17T11:38:58.903Z,64.02
2022-08-17T11:39:58.898Z,67.39
2022-08-17T11:40:58.840Z,68.42
2022-08-17T11:41:58.825Z,65.90
2022-08-17T11:42:58.808Z,67.04
2022-08-17T11:43:58.816Z,66.44
2022-08-17T11:44:58.777Z,67.20
2022-08-17T11:45:58.755Z,68.39
2022-08-17T11:46:59.301Z,68.19
2022-08-17T11:48:26.080Z,67.48
2022-08-17T11:49:00.730Z,68.04
2022-08-17T11:49:58.686Z,68.69
2022-08-17T11:50:58.672Z,65.99
2022-08-17T11:51:58.643Z,68.54
2022-08-17T11:52:58.630Z,66.52
2022-08-17T11:54:21.420Z,69.22
2022-08-17T11:55:24.062Z,69.75
2022-08-17T11:56:00.586Z,69.36
2022-08-17T11:56:58.560Z,64.90
2022-08-17T11:57:58.540Z,67.08
2022-08-17T11:58:58.559Z,66.72
2022-08-17T11:59:59.469Z,66.82
2022-08-17T12:00:58.491Z,66.32
2022-08-17T12:01:58.468Z,68.13
2022-08-17T12:02:58.458Z,67.48
2022-08-17T12:03:58.461Z,65.70
2022-08-17T12:04:58.407Z,67.96
2022-08-17T12:05:59.384Z,67.90
2022-08-17T12:06:58.382Z,68.17
2022-08-17T12:07:58.357Z,67.90
2022-08-17T12:08:58.365Z,68.90
2022-08-17T12:09:58.320Z,70.03
2022-08-17T12:10:58.306Z,68.94
2022-08-17T12:12:12.876Z,67.73
2022-08-17T12:12:59.266Z,71.08
2022-08-17T12:13:58.300Z,68.79
2022-08-17T12:15:10.234Z,69.42
2022-08-17T12:16:00.214Z,68.55
2022-08-17T12:16:58.198Z,69.00
2022-08-17T12:17:58.555Z,68.47
2022-08-17T12:18:58.195Z,70.89
2022-08-17T12:19:58.145Z,67.63
2022-08-17T12:20:58.127Z,67.28
2022-08-17T12:21:58.113Z,67.73
2022-08-17T12:22:58.106Z,69.04
2022-08-17T12:23:58.101Z,69.62
2022-08-17T12:24:58.057Z,70.07
2022-08-17T12:25:58.037Z,69.48
2022-08-17T12:26:58.019Z,69.54
2022-08-17T12:28:06.201Z,69.08
2022-08-17T12:28:59.747Z,71.45
2022-08-17T12:29:57.964Z,68.67
2022-08-17T12:30:57.945Z,69.77
2022-08-17T12:31:57.927Z,70.28
2022-08-17T12:32:57.912Z,69.22
2022-08-17T12:33:57.916Z,69.30
2022-08-17T12:34:58.445Z,69.73
2022-08-17T12:35:59.535Z,70.61
2022-08-17T12:36:59.835Z,70.23
2022-08-17T12:37:57.819Z,69.52
2022-08-17T12:38:57.832Z,69.43
2022-08-17T12:39:57.836Z,69.74
2022-08-17T12:40:58.078Z,69.28
2022-08-17T12:42:02.090Z,68.68
2022-08-17T12:42:58.735Z,70.21
2022-08-17T12:43:57.738Z,71.02
2022-08-17T12:44:57.694Z,69.22
2022-08-17T12:45:57.670Z,68.67
2022-08-17T12:46:57.658Z,70.33
2022-08-17T12:47:57.639Z,70.86
2022-08-17T12:48:59.972Z,69.48
2022-08-17T12:49:57.606Z,70.10
2022-08-17T12:50:57.587Z,69.64
2022-08-17T12:51:57.570Z,71.15